Time;durP1;ratioP1;P1;durP2;ratioP2;P2;SDS_P1;SDS_P2;PMS_P1;PMS_P2;Temp;Humidity;BMP_temperature;BMP_pressure;BME280_temperature;BME280_humidity;BME280_pressure;Samples;Min_cycle;Max_cycle;Signal;HPM_P1;HPM_P2
2021/04/11 00:06:12;;;;;;;5.22;2.85;;;10.40;99.90;;;;;;6649321;89;20225;-75
2021/04/11 00:16:13;;;;;;;6.57;2.80;;;10.40;99.90;;;;;;6648130;89;20709;-75
2021/04/11 00:26:13;;;;;;;4.82;2.62;;;10.40;99.90;;;;;;6648063;89;20262;-75
2021/04/11 00:36:17;;;;;;;5.57;2.70;;;10.50;99.90;;;;;;6645072;89;20363;-76
2021/04/11 00:47:04;;;;;;;6.03;2.92;;;10.40;99.90;;;;;;6640790;89;20184;-76
2021/04/11 00:57:07;;;;;;;5.70;3.42;;;10.30;99.90;;;;;;6648302;89;21032;-76
2021/04/11 01:07:11;;;;;;;8.98;3.37;;;10.30;99.90;;;;;;6647872;89;20264;-76
2021/04/11 01:17:19;;;;;;;9.18;3.90;;;10.20;99.90;;;;;;6648437;88;20238;-76
2021/04/11 01:27:24;;;;;;;6.55;3.70;;;10.10;99.90;;;;;;6646019;89;20705;-76
2021/04/11 01:37:27;;;;;;;6.47;4.15;;;10.00;99.90;;;;;;6648497;89;20288;-76
2021/04/11 01:47:28;;;;;;;7.50;4.53;;;10.00;99.90;;;;;;6648013;89;20759;-75
2021/04/11 01:57:31;;;;;;;7.68;4.25;;;9.90;99.90;;;;;;6645029;89;20675;-76
2021/04/11 02:07:32;;;;;;;7.75;4.37;;;9.90;99.90;;;;;;6651190;88;20827;-76
2021/04/11 02:17:32;;;;;;;7.57;4.55;;;9.90;99.90;;;;;;6654490;89;20177;-76
2021/04/11 02:27:33;;;;;;;7.32;4.15;;;9.80;99.90;;;;;;6650375;89;20258;-76
2021/04/11 02:37:36;;;;;;;7.90;4.60;;;9.90;99.90;;;;;;6651703;89;20286;-76
2021/04/11 02:47:37;;;;;;;8.75;4.50;;;9.80;99.90;;;;;;6657057;89;20204;-76
2021/04/11 02:57:38;;;;;;;6.90;4.62;;;9.90;99.90;;;;;;6652251;89;20320;-75
2021/04/11 03:07:49;;;;;;;8.02;4.65;;;10.00;99.90;;;;;;6650949;88;20219;-77
2021/04/11 03:17:52;;;;;;;7.65;4.65;;;10.00;99.90;;;;;;6650890;88;20189;-76
2021/04/11 03:27:58;;;;;;;6.53;4.40;;;10.10;99.90;;;;;;6651401;89;20268;-76
2021/04/11 03:38:01;;;;;;;7.47;4.70;;;9.90;99.90;;;;;;6650517;89;20294;-77
2021/04/11 03:48:15;;;;;;;7.82;4.90;;;9.70;99.90;;;;;;6650015;89;20344;-77
2021/04/11 03:58:26;;;;;;;8.65;4.87;;;9.60;99.90;;;;;;6648949;89;20239;-75
2021/04/11 04:08:26;;;;;;;10.88;4.62;;;9.50;99.90;;;;;;6647710;88;20210;-77
2021/04/11 04:18:56;;;;;;;11.88;6.72;;;9.60;99.90;;;;;;6650064;89;20284;-76
2021/04/11 04:29:13;;;;;;;11.23;6.97;;;9.50;99.90;;;;;;6649944;89;20176;-76
2021/04/11 04:39:39;;;;;;;13.50;7.93;;;9.00;99.90;;;;;;6648558;88;20574;-76
2021/04/11 04:50:07;;;;;;;13.37;7.53;;;8.80;99.90;;;;;;6640177;89;20221;-76
2021/04/11 05:00:23;;;;;;;14.82;8.48;;;8.50;99.90;;;;;;6644651;88;20403;-75
2021/04/11 05:10:30;;;;;;;17.02;9.30;;;8.60;99.90;;;;;;6659932;78;20281;-73
2021/04/11 05:20:34;;;;;;;16.65;9.85;;;8.40;99.90;;;;;;6663155;88;20246;-73
2021/04/11 05:30:44;;;;;;;13.57;7.53;;;8.00;99.90;;;;;;6676728;88;20236;-72
2021/04/11 05:40:54;;;;;;;12.93;6.68;;;7.50;99.90;;;;;;6662313;88;20220;-72
2021/04/11 05:50:59;;;;;;;14.05;7.93;;;7.10;99.90;;;;;;6666104;88;20229;-73
2021/04/11 06:01:06;;;;;;;16.13;8.53;;;6.80;99.90;;;;;;6663035;88;20192;-72
2021/04/11 06:11:10;;;;;;;13.07;7.18;;;6.60;99.90;;;;;;6674607;88;20185;-73
2021/04/11 06:21:40;;;;;;;12.18;6.15;;;6.60;99.90;;;;;;6668685;88;20227;-72
2021/04/11 06:31:54;;;;;;;11.60;6.53;;;6.30;99.90;;;;;;6665708;88;20711;-73
2021/04/11 06:42:32;;;;;;;12.68;6.43;;;6.00;99.90;;;;;;6669951;88;20256;-74
2021/04/11 06:52:49;;;;;;;18.17;10.10;;;5.90;99.90;;;;;;6670225;89;20636;-74
2021/04/11 07:03:19;;;;;;;15.27;8.43;;;5.80;99.90;;;;;;6666433;89;20202;-75
2021/04/11 07:14:07;;;;;;;15.30;8.95;;;5.80;99.90;;;;;;6667038;88;20519;-75
2021/04/11 07:25:05;;;;;;;16.20;8.38;;;5.80;99.90;;;;;;6663913;89;20193;-75
2021/04/11 07:35:24;;;;;;;;;;;5.70;99.90;;;;;;6650858;88;20620;-75
2021/04/11 07:45:34;;;;;;;19.90;9.00;;;5.40;99.90;;;;;;6668625;89;20571;-77
2021/04/11 07:55:49;;;;;;;10.30;5.28;;;5.20;99.90;;;;;;6683964;88;20247;-75
2021/04/11 08:05:49;;;;;;;8.45;4.28;;;4.80;99.90;;;;;;6674863;88;20183;-74
2021/04/11 08:16:13;;;;;;;6.95;2.80;;;4.80;99.90;;;;;;6665100;88;21131;-74
2021/04/11 08:26:32;;;;;;;5.10;2.85;;;4.60;99.90;;;;;;6662997;88;21006;-75
2021/04/11 08:36:48;;;;;;;6.72;3.78;;;4.50;99.90;;;;;;6659142;88;20699;-75
2021/04/11 08:47:22;;;;;;;6.30;3.17;;;4.60;99.90;;;;;;6668035;88;20197;-76
2021/04/11 08:57:38;;;;;;;5.72;2.62;;;4.60;99.90;;;;;;6667412;89;20213;-76
2021/04/11 09:07:50;;;;;;;7.20;3.40;;;4.50;99.90;;;;;;6669570;88;20208;-75
2021/04/11 09:18:14;;;;;;;10.13;4.82;;;4.50;99.90;;;;;;6669637;88;20183;-75
2021/04/11 09:28:38;;;;;;;9.63;4.18;;;4.50;99.90;;;;;;6668518;88;20236;-76
2021/04/11 09:39:22;;;;;;;7.05;3.95;;;4.50;99.90;;;;;;6668738;88;20198;-74
2021/04/11 09:49:58;;;;;;;6.18;3.05;;;4.60;99.90;;;;;;6669952;88;20224;-74
2021/04/11 10:00:20;;;;;;;5.65;2.90;;;4.30;99.90;;;;;;6682741;88;20184;-76
2021/04/11 10:10:35;;;;;;;8.50;4.57;;;4.10;99.90;;;;;;6672815;88;20176;-74
2021/04/11 10:20:51;;;;;;;7.70;4.25;;;4.10;99.90;;;;;;6670804;88;20208;-75
2021/04/11 10:31:10;;;;;;;7.28;3.92;;;4.10;99.90;;;;;;6672204;89;20248;-75
2021/04/11 10:41:44;;;;;;;8.80;4.75;;;3.90;99.90;;;;;;6678370;89;20227;-75
2021/04/11 10:51:48;;;;;;;12.85;6.37;;;3.70;99.90;;;;;;6672587;89;20172;-77
2021/04/11 11:02:08;;;;;;;9.93;5.50;;;3.80;99.90;;;;;;6673517;88;20205;-76
2021/04/11 11:12:19;;;;;;;11.65;5.53;;;3.90;99.90;;;;;;6729656;78;20235;-77
2021/04/11 11:22:40;;;;;;;9.02;5.03;;;4.00;99.90;;;;;;6758720;87;20210;-75
2021/04/11 11:33:19;;;;;;;7.12;3.92;;;4.00;99.90;;;;;;6734164;87;20751;-75
2021/04/11 11:43:40;;;;;;;8.00;4.68;;;4.20;99.90;;;;;;6720697;87;20359;-75
2021/04/11 11:54:04;;;;;;;6.07;3.75;;;4.20;99.90;;;;;;6750563;88;20189;-76
2021/04/11 12:04:18;;;;;;;11.15;5.53;;;4.20;99.90;;;;;;6753044;87;20315;-75
2021/04/11 12:14:45;;;;;;;11.30;6.62;;;4.10;99.90;;;;;;6745167;88;20566;-76
2021/04/11 12:24:56;;;;;;;10.13;5.10;;;4.40;99.90;;;;;;6746903;88;20311;-75
2021/04/11 12:35:02;;;;;;;8.90;5.30;;;4.20;99.90;;;;;;6756636;88;20173;-78
2021/04/11 12:45:20;;;;;;;9.50;6.17;;;4.50;99.90;;;;;;6753350;88;20177;-75
2021/04/11 12:55:34;;;;;;;10.82;7.03;;;4.90;99.90;;;;;;6747710;88;20205;-75
2021/04/11 13:05:43;;;;;;;11.77;6.93;;;5.00;99.90;;;;;;6754309;88;20294;-75
2021/04/11 13:16:11;;;;;;;9.77;6.47;;;5.10;99.90;;;;;;6759219;87;20194;-74
2021/04/11 13:26:27;;;;;;;8.32;5.45;;;5.40;99.90;;;;;;6748150;88;20696;-74
2021/04/11 13:36:36;;;;;;;6.90;4.80;;;5.20;99.90;;;;;;6754023;88;20215;-75
2021/04/11 13:47:02;;;;;;;6.07;4.18;;;5.30;99.90;;;;;;6752640;88;20329;-76
2021/04/11 13:57:18;;;;;;;8.88;5.43;;;5.50;99.90;;;;;;6743210;88;20279;-75
2021/04/11 14:07:28;;;;;;;6.93;4.82;;;5.50;99.90;;;;;;6743531;88;20176;-76
2021/04/11 14:17:43;;;;;;;8.30;5.87;;;5.50;99.90;;;;;;6744144;88;20664;-75
2021/04/11 14:27:47;;;;;;;13.38;7.15;;;5.50;99.90;;;;;;6749305;88;20194;-75
2021/04/11 14:38:08;;;;;;;10.82;6.97;;;5.00;99.90;;;;;;6747123;88;20703;-75
2021/04/11 14:48:14;;;;;;;7.40;4.43;;;5.00;99.90;;;;;;6740090;88;20210;-75
2021/04/11 14:58:25;;;;;;;7.00;4.43;;;5.20;99.90;;;;;;6751754;88;20671;-76
2021/04/11 15:08:43;;;;;;;10.07;6.75;;;5.30;99.90;;;;;;6748595;88;20570;-75
2021/04/11 15:18:51;;;;;;;11.45;7.47;;;5.40;99.90;;;;;;6753985;88;20997;-76
2021/04/11 15:29:25;;;;;;;11.35;7.47;;;5.70;99.90;;;;;;6752437;87;20197;-76
2021/04/11 15:39:55;;;;;;;15.15;9.45;;;5.50;99.90;;;;;;6745346;87;20223;-74
2021/04/11 15:50:00;;;;;;;12.82;6.40;;;5.20;99.90;;;;;;6745064;87;20255;-74
2021/04/11 16:00:23;;;;;;;10.15;5.85;;;5.20;99.90;;;;;;6751945;87;20254;-74
2021/04/11 16:10:28;;;;;;;7.22;4.85;;;5.20;99.90;;;;;;6750697;87;20660;-73
2021/04/11 16:20:54;;;;;;;12.15;6.62;;;5.10;99.90;;;;;;6743447;88;20291;-76
2021/04/11 16:31:08;;;;;;;9.15;5.60;;;5.10;99.90;;;;;;6742767;88;20226;-76
2021/04/11 16:41:25;;;;;;;9.13;4.90;;;5.10;99.90;;;;;;6740206;88;20347;-75
2021/04/11 16:51:41;;;;;;;11.73;6.07;;;5.20;99.90;;;;;;6743352;88;20173;-75
2021/04/11 17:01:54;;;;;;;7.50;4.73;;;5.30;99.90;;;;;;6748237;88;20165;-75
2021/04/11 17:11:58;;;;;;;7.97;5.10;;;5.30;99.90;;;;;;6745506;88;20239;-77
2021/04/11 17:22:23;;;;;;;11.23;7.07;;;5.30;99.90;;;;;;6740786;88;20189;-76
2021/04/11 17:32:38;;;;;;;12.00;7.57;;;5.10;99.90;;;;;;6741558;87;20227;-76
2021/04/11 17:42:54;;;;;;;11.52;7.85;;;5.20;99.90;;;;;;6695591;88;20645;-77
2021/04/11 17:53:33;;;;;;;13.90;8.88;;;5.20;99.90;;;;;;6737281;88;20188;-78
2021/04/11 18:04:04;;;;;;;13.73;7.43;;;5.10;99.90;;;;;;6729771;88;20608;-76
2021/04/11 18:14:12;;;;;;;12.52;6.65;;;5.10;99.90;;;;;;6733866;88;20313;-77
2021/04/11 18:24:25;;;;;;;9.32;5.50;;;5.20;99.90;;;;;;6730360;88;20646;-75
2021/04/11 18:34:35;;;;;;;7.87;5.00;;;5.20;99.90;;;;;;6717223;88;20208;-75
2021/04/11 18:44:41;;;;;;;6.05;3.83;;;5.10;99.90;;;;;;6760639;88;20176;-75
2021/04/11 18:54:48;;;;;;;6.78;3.40;;;5.00;99.90;;;;;;6744970;88;20234;-75
2021/04/11 19:05:17;;;;;;;6.45;3.80;;;4.90;99.90;;;;;;6743749;88;20231;-76
2021/04/11 19:15:28;;;;;;;10.95;5.30;;;4.90;99.90;;;;;;6739544;88;20388;-76
2021/04/11 19:25:47;;;;;;;11.75;5.85;;;4.80;99.90;;;;;;6739160;88;20197;-75
2021/04/11 19:36:11;;;;;;;14.02;7.85;;;4.90;99.90;;;;;;6739104;88;20258;-75
2021/04/11 19:46:31;;;;;;;12.02;6.62;;;4.80;99.90;;;;;;6739308;88;20181;-75
2021/04/11 19:56:40;;;;;;;12.93;5.35;;;4.80;99.90;;;;;;6756628;87;20168;-75
2021/04/11 20:07:27;;;;;;;9.02;5.32;;;4.80;99.90;;;;;;6746311;88;20193;-73
2021/04/11 20:17:33;;;;;;;8.95;5.20;;;4.80;99.90;;;;;;6737813;88;20208;-74
2021/04/11 20:28:07;;;;;;;7.82;5.05;;;4.70;99.90;;;;;;6754844;88;20206;-75
2021/04/11 20:38:30;;;;;;;11.20;6.07;;;4.80;99.90;;;;;;6748130;88;20188;-74
2021/04/11 20:48:57;;;;;;;9.57;5.28;;;4.70;99.90;;;;;;6755630;87;20229;-75
2021/04/11 20:59:36;;;;;;;8.35;4.60;;;4.60;99.90;;;;;;6739303;88;20218;-74
2021/04/11 21:09:54;;;;;;;6.45;3.65;;;4.60;99.90;;;;;;6760045;88;20204;-76
2021/04/11 21:20:12;;;;;;;9.52;3.25;;;4.60;99.90;;;;;;6755178;88;20199;-76
2021/04/11 21:30:45;;;;;;;5.10;2.65;;;4.60;99.90;;;;;;6753921;88;20608;-75
2021/04/11 21:40:54;;;;;;;7.20;3.15;;;4.50;99.90;;;;;;6758724;87;20629;-76
2021/04/11 21:51:21;;;;;;;5.47;3.03;;;4.50;99.90;;;;;;6754349;88;20612;-76
2021/04/11 22:01:43;;;;;;;4.10;2.10;;;4.40;99.90;;;;;;6740542;88;20687;-75
2021/04/11 22:11:46;;;;;;;7.68;2.80;;;4.30;99.90;;;;;;6746102;88;20201;-76
2021/04/11 22:21:51;;;;;;;5.07;2.05;;;4.20;99.90;;;;;;6753759;88;20343;-76
2021/04/11 22:31:55;;;;;;;3.45;1.80;;;4.10;99.90;;;;;;6752554;88;20187;-76
2021/04/11 22:42:18;;;;;;;3.53;1.60;;;4.00;99.90;;;;;;6752697;88;20229;-76
2021/04/11 22:52:35;;;;;;;6.70;1.65;;;4.00;99.90;;;;;;6753825;88;20226;-76
2021/04/11 23:02:47;;;;;;;5.32;1.83;;;4.00;99.90;;;;;;6754584;88;20171;-76
2021/04/11 23:13:08;;;;;;;4.60;1.75;;;3.80;99.90;;;;;;6756330;88;20184;-76
2021/04/11 23:23:21;;;;;;;3.53;1.98;;;3.80;99.90;;;;;;6753284;88;20195;-76
2021/04/11 23:33:29;;;;;;;4.05;2.00;;;3.60;99.90;;;;;;6753424;88;20228;-77
2021/04/11 23:43:58;;;;;;;4.00;2.00;;;3.50;99.90;;;;;;6750644;87;20194;-76
2021/04/11 23:54:30;;;;;;;7.10;1.80;;;3.50;99.90;;;;;;6745129;88;20204;-77
